createdAt,value
2019-04-01T11:43:47.695Z,59.50
2019-04-01T11:48:48.023Z,59.40
2019-04-01T11:51:31.894Z,59.10
2019-04-01T11:53:50.260Z,58.70
2019-04-01T11:56:21.663Z,58.50
2019-04-01T11:58:51.914Z,58.20
2019-04-01T12:01:22.164Z,57.80
2019-04-01T12:03:52.403Z,57.50
2019-04-01T18:39:48.692Z,62.40
2019-04-01T18:42:19.717Z,60.90
2019-04-01T18:44:49.955Z,60.90
2019-04-01T18:47:21.013Z,60.80
2019-04-01T18:49:51.624Z,61.40
2019-04-01T18:52:21.863Z,61.50
2019-04-01T18:54:52.105Z,61.70
2019-04-01T18:57:22.352Z,60.50
2019-04-01T18:59:52.594Z,59.90
2019-04-01T19:02:22.835Z,59.30
2019-04-01T19:04:53.078Z,59.20
2019-04-01T19:07:23.441Z,59.20
2019-04-01T19:10:05.506Z,58.80
2019-04-01T19:12:25.812Z,58.50
2019-04-01T19:14:56.156Z,58.30
2019-04-01T19:17:26.447Z,58.20
2019-04-01T19:19:56.719Z,58.10
2019-04-01T19:22:27.016Z,58.00
2019-04-01T19:24:57.306Z,57.80
2019-04-01T19:27:27.600Z,57.80
2019-04-01T19:29:57.856Z,57.70
2019-04-01T19:32:28.100Z,57.60
2019-04-01T19:34:58.352Z,57.50
2019-04-01T19:37:28.604Z,57.40
2019-04-01T19:39:58.934Z,57.40
2019-04-01T19:42:29.186Z,57.40
2019-04-01T19:44:59.439Z,57.30
2019-04-01T19:47:29.748Z,57.20
2019-04-01T19:49:59.995Z,57.20
2019-04-01T19:52:30.239Z,57.10
2019-04-01T19:55:00.472Z,57.10
2019-04-01T19:57:30.702Z,57.00
2019-04-01T20:00:00.943Z,57.00
2019-04-01T20:02:34.039Z,56.60
2019-04-01T20:07:33.814Z,56.80
2019-04-01T20:10:04.991Z,56.90
2019-04-01T20:12:35.827Z,56.90
2019-04-01T20:15:11.967Z,56.90
2019-04-01T20:17:42.524Z,56.90
2019-04-01T20:20:14.724Z,56.90
2019-04-01T20:22:45.244Z,56.90
2019-04-01T20:25:17.009Z,56.80
2019-04-01T20:27:47.488Z,56.80
2019-04-01T20:30:18.895Z,56.80
2019-04-01T20:32:49.422Z,56.70
2019-04-01T20:35:23.821Z,56.80
2019-04-01T20:37:51.756Z,56.70
2019-04-01T20:40:22.017Z,56.60
2019-04-01T20:42:53.152Z,56.60
2019-04-01T20:50:22.967Z,56.10
2019-04-01T21:27:53.092Z,55.50
2019-04-01T21:40:23.115Z,55.40
2019-04-01T21:45:23.130Z,55.30
2019-04-01T21:47:53.356Z,55.30
2019-04-01T21:50:23.579Z,55.40
2019-04-01T21:55:25.221Z,55.30
2019-04-01T22:00:43.489Z,55.30
2019-04-01T22:03:14.308Z,55.30
2019-04-01T22:05:44.538Z,55.20
2019-04-01T22:13:14.620Z,55.20
